Junius, South Dakota
Current Conditions -  °F | °C
As of 1:50 AM on Friday 19 Dec 2014 (Local Time) from KMDS Reporting Station
Overcast Overcast  
Wind Chill: -10°   Ceiling: 900
Heat Index: -4°   Visibility: 10mi
Dew Point: -4°   Wind: 10mph
Humidity: 100%   Direction: 190°S
Pressure: 30.13"   Gusts: NA
Location:  43.9866°N, 97.1364°W
Report Text: KMDS 190750Z AUTO 19009KT 10SM OVC009 M04/M04 A3013 RMK AO2
Loading
Personal Weather Stations






























Interactive Weather Map New forecast layout! Learn more

10-Day Weather Forecast

Advertisements
Track Severe Weather on mobile